sensor_id;sensor_type;location;lat;lon;timestamp;temperature;humidity
75357;HTU21D;63946;51.986;5.930;2024-03-02T07:15:41;7.79;68.22
75357;HTU21D;63946;51.986;5.930;2024-03-02T07:18:35;7.78;68.31
75357;HTU21D;63946;51.986;5.930;2024-03-02T07:21:07;7.84;68.24
75357;HTU21D;63946;51.986;5.930;2024-03-02T07:23:36;7.88;68.16
75357;HTU21D;63946;51.986;5.930;2024-03-02T07:26:05;7.89;68.13
75357;HTU21D;63946;51.986;5.930;2024-03-02T07:28:34;7.90;68.18
75357;HTU21D;63946;51.986;5.930;2024-03-02T07:31:04;7.92;68.13
75357;HTU21D;63946;51.986;5.930;2024-03-02T07:33:33;7.96;68.13
75357;HTU21D;63946;51.986;5.930;2024-03-02T07:36:02;7.97;67.93
75357;HTU21D;63946;51.986;5.930;2024-03-02T07:38:31;7.96;67.79
75357;HTU21D;63946;51.986;5.930;2024-03-02T07:41:01;7.97;67.67
75357;HTU21D;63946;51.986;5.930;2024-03-02T07:43:30;7.99;67.50
75357;HTU21D;63946;51.986;5.930;2024-03-02T07:46:00;7.98;67.41
75357;HTU21D;63946;51.986;5.930;2024-03-02T07:48:29;7.99;67.38
75357;HTU21D;63946;51.986;5.930;2024-03-02T07:50:58;8.02;67.27
75357;HTU21D;63946;51.986;5.930;2024-03-02T07:53:28;8.07;67.20
75357;HTU21D;63946;51.986;5.930;2024-03-02T07:55:56;8.16;67.01
75357;HTU21D;63946;51.986;5.930;2024-03-02T07:58:28;8.20;66.98
75357;HTU21D;63946;51.986;5.930;2024-03-02T08:00:59;8.26;66.96
75357;HTU21D;63946;51.986;5.930;2024-03-02T08:03:28;8.27;67.01
75357;HTU21D;63946;51.986;5.930;2024-03-02T08:05:58;8.33;66.96
75357;HTU21D;63946;51.986;5.930;2024-03-02T08:08:27;8.41;66.77
75357;HTU21D;63946;51.986;5.930;2024-03-02T08:10:56;8.48;66.65
75357;HTU21D;63946;51.986;5.930;2024-03-02T08:13:24;8.55;66.49
75357;HTU21D;63946;51.986;5.930;2024-03-02T08:15:53;8.61;66.37
75357;HTU21D;63946;51.986;5.930;2024-03-02T08:18:25;8.71;66.24
75357;HTU21D;63946;51.986;5.930;2024-03-02T08:20:54;8.86;65.95
75357;HTU21D;63946;51.986;5.930;2024-03-02T08:23:23;9.05;65.64
75357;HTU21D;63946;51.986;5.930;2024-03-02T08:25:54;9.27;65.08
75357;HTU21D;63946;51.986;5.930;2024-03-02T08:28:23;9.34;64.76
75357;HTU21D;63946;51.986;5.930;2024-03-02T08:30:52;9.27;64.75
75357;HTU21D;63946;51.986;5.930;2024-03-02T08:33:21;9.21;64.98
75357;HTU21D;63946;51.986;5.930;2024-03-02T08:35:51;9.16;64.96
75357;HTU21D;63946;51.986;5.930;2024-03-02T08:38:20;9.18;65.04
75357;HTU21D;63946;51.986;5.930;2024-03-02T08:40:49;9.21;64.98
75357;HTU21D;63946;51.986;5.930;2024-03-02T08:43:19;9.27;64.66
75357;HTU21D;63946;51.986;5.930;2024-03-02T08:45:48;9.34;64.28
75357;HTU21D;63946;51.986;5.930;2024-03-02T08:48:17;9.35;63.99
75357;HTU21D;63946;51.986;5.930;2024-03-02T08:50:46;9.39;63.94
75357;HTU21D;63946;51.986;5.930;2024-03-02T08:53:15;9.41;63.90
75357;HTU21D;63946;51.986;5.930;2024-03-02T08:55:46;9.50;63.65
75357;HTU21D;63946;51.986;5.930;2024-03-02T08:58:14;9.57;63.28
75357;HTU21D;63946;51.986;5.930;2024-03-02T09:00:44;9.59;62.98
75357;HTU21D;63946;51.986;5.930;2024-03-02T09:03:12;9.59;62.97
75357;HTU21D;63946;51.986;5.930;2024-03-02T09:05:41;9.65;62.91
75357;HTU21D;63946;51.986;5.930;2024-03-02T09:08:11;9.76;62.76
75357;HTU21D;63946;51.986;5.930;2024-03-02T09:10:39;9.88;62.48
75357;HTU21D;63946;51.986;5.930;2024-03-02T09:13:09;10.01;62.28
75357;HTU21D;63946;51.986;5.930;2024-03-02T09:15:38;10.12;61.84
75357;HTU21D;63946;51.986;5.930;2024-03-02T09:18:07;10.14;61.45
75357;HTU21D;63946;51.986;5.930;2024-03-02T09:20:36;10.14;61.31
75357;HTU21D;63946;51.986;5.930;2024-03-02T09:23:05;10.21;61.05
75357;HTU21D;63946;51.986;5.930;2024-03-02T09:25:33;10.22;61.04
75357;HTU21D;63946;51.986;5.930;2024-03-02T09:28:03;10.26;60.87
75357;HTU21D;63946;51.986;5.930;2024-03-02T09:30:33;10.27;60.86
75357;HTU21D;63946;51.986;5.930;2024-03-02T09:33:02;10.31;60.85
75357;HTU21D;63946;51.986;5.930;2024-03-02T09:35:32;10.39;60.60
75357;HTU21D;63946;51.986;5.930;2024-03-02T09:38:01;10.46;60.41
75357;HTU21D;63946;51.986;5.930;2024-03-02T09:40:30;10.60;60.37
75357;HTU21D;63946;51.986;5.930;2024-03-02T09:42:59;10.66;59.87
75357;HTU21D;63946;51.986;5.930;2024-03-02T09:45:27;10.71;59.58
75357;HTU21D;63946;51.986;5.930;2024-03-02T09:47:57;10.72;59.20
75357;HTU21D;63946;51.986;5.930;2024-03-02T09:50:25;10.67;59.29
75357;HTU21D;63946;51.986;5.930;2024-03-02T09:52:54;10.69;59.22
75357;HTU21D;63946;51.986;5.930;2024-03-02T09:55:23;10.68;59.03
75357;HTU21D;63946;51.986;5.930;2024-03-02T09:57:51;10.66;58.87
75357;HTU21D;63946;51.986;5.930;2024-03-02T10:00:22;10.72;58.96
75357;HTU21D;63946;51.986;5.930;2024-03-02T10:02:51;10.82;58.83
75357;HTU21D;63946;51.986;5.930;2024-03-02T10:05:24;10.94;58.48
75357;HTU21D;63946;51.986;5.930;2024-03-02T10:08:01;11.04;58.29
75357;HTU21D;63946;51.986;5.930;2024-03-02T10:10:38;11.16;58.01
75357;HTU21D;63946;51.986;5.930;2024-03-02T10:13:10;11.26;57.60
75357;HTU21D;63946;51.986;5.930;2024-03-02T10:15:40;11.37;57.46
75357;HTU21D;63946;51.986;5.930;2024-03-02T10:18:12;11.44;57.32
75357;HTU21D;63946;51.986;5.930;2024-03-02T10:20:43;11.68;57.22
75357;HTU21D;63946;51.986;5.930;2024-03-02T10:23:15;11.88;56.67
75357;HTU21D;63946;51.986;5.930;2024-03-02T10:25:47;12.00;56.58
75357;HTU21D;63946;51.986;5.930;2024-03-02T10:28:15;12.15;56.36
75357;HTU21D;63946;51.986;5.930;2024-03-02T10:30:47;12.16;55.10
75357;HTU21D;63946;51.986;5.930;2024-03-02T10:33:17;12.06;55.36
75357;HTU21D;63946;51.986;5.930;2024-03-02T10:35:49;12.10;55.20
75357;HTU21D;63946;51.986;5.930;2024-03-02T10:38:18;12.07;55.13
75357;HTU21D;63946;51.986;5.930;2024-03-02T10:40:47;12.05;54.91
75357;HTU21D;63946;51.986;5.930;2024-03-02T10:43:17;12.07;54.59
75357;HTU21D;63946;51.986;5.930;2024-03-02T10:45:49;12.15;54.68
75357;HTU21D;63946;51.986;5.930;2024-03-02T10:48:21;12.30;54.83
75357;HTU21D;63946;51.986;5.930;2024-03-02T10:50:49;12.37;54.05
75357;HTU21D;63946;51.986;5.930;2024-03-02T10:53:19;12.40;54.33
75357;HTU21D;63946;51.986;5.930;2024-03-02T10:55:49;12.46;53.84
75357;HTU21D;63946;51.986;5.930;2024-03-02T10:58:23;12.58;53.82
75357;HTU21D;63946;51.986;5.930;2024-03-02T11:00:55;12.70;53.84
75357;HTU21D;63946;51.986;5.930;2024-03-02T11:03:24;12.74;53.50
75357;HTU21D;63946;51.986;5.930;2024-03-02T11:05:53;12.82;53.68
75357;HTU21D;63946;51.986;5.930;2024-03-02T11:08:23;12.95;53.30
75357;HTU21D;63946;51.986;5.930;2024-03-02T11:10:57;13.11;53.46
75357;HTU21D;63946;51.986;5.930;2024-03-02T11:13:37;13.11;52.59
75357;HTU21D;63946;51.986;5.930;2024-03-02T11:16:14;13.09;52.24
75357;HTU21D;63946;51.986;5.930;2024-03-02T11:18:48;13.11;52.42
75357;HTU21D;63946;51.986;5.930;2024-03-02T11:21:17;13.19;52.14
75357;HTU21D;63946;51.986;5.930;2024-03-02T11:23:46;13.07;51.46
75357;HTU21D;63946;51.986;5.930;2024-03-02T11:26:24;13.10;51.59
75357;HTU21D;63946;51.986;5.930;2024-03-02T11:28:54;13.14;51.71
75357;HTU21D;63946;51.986;5.930;2024-03-02T11:31:58;13.23;51.46
75357;HTU21D;63946;51.986;5.930;2024-03-02T11:34:31;13.34;51.56
75357;HTU21D;63946;51.986;5.930;2024-03-02T11:37:03;13.29;51.60
75357;HTU21D;63946;51.986;5.930;2024-03-02T11:39:34;13.36;51.37
75357;HTU21D;63946;51.986;5.930;2024-03-02T11:42:08;13.36;51.16
75357;HTU21D;63946;51.986;5.930;2024-03-02T11:44:37;13.48;51.67
75357;HTU21D;63946;51.986;5.930;2024-03-02T11:47:08;13.53;51.79
75357;HTU21D;63946;51.986;5.930;2024-03-02T11:49:49;13.44;51.93
75357;HTU21D;63946;51.986;5.930;2024-03-02T11:52:20;13.36;51.93
75357;HTU21D;63946;51.986;5.930;2024-03-02T11:54:50;13.41;51.66
75357;HTU21D;63946;51.986;5.930;2024-03-02T11:57:23;13.55;51.62
75357;HTU21D;63946;51.986;5.930;2024-03-02T11:59:56;13.74;51.01
75357;HTU21D;63946;51.986;5.930;2024-03-02T12:02:25;13.79;50.75
75357;HTU21D;63946;51.986;5.930;2024-03-02T12:04:55;13.81;50.26
75357;HTU21D;63946;51.986;5.930;2024-03-02T12:07:26;13.86;50.34
75357;HTU21D;63946;51.986;5.930;2024-03-02T12:10:01;14.00;50.01
75357;HTU21D;63946;51.986;5.930;2024-03-02T12:12:31;14.18;50.00
75357;HTU21D;63946;51.986;5.930;2024-03-02T12:15:00;14.29;48.94
75357;HTU21D;63946;51.986;5.930;2024-03-02T12:17:29;14.28;48.22
75357;HTU21D;63946;51.986;5.930;2024-03-02T12:19:58;14.33;48.21
75357;HTU21D;63946;51.986;5.930;2024-03-02T12:22:29;14.34;48.33
75357;HTU21D;63946;51.986;5.930;2024-03-02T12:24:58;14.44;48.37
75357;HTU21D;63946;51.986;5.930;2024-03-02T12:27:29;14.59;48.02
75357;HTU21D;63946;51.986;5.930;2024-03-02T12:29:58;14.52;47.31
75357;HTU21D;63946;51.986;5.930;2024-03-02T12:32:26;14.49;47.16
75357;HTU21D;63946;51.986;5.930;2024-03-02T12:34:56;14.39;46.68
75357;HTU21D;63946;51.986;5.930;2024-03-02T12:37:24;14.25;46.39
75357;HTU21D;63946;51.986;5.930;2024-03-02T12:39:54;14.15;46.13
75357;HTU21D;63946;51.986;5.930;2024-03-02T12:42:24;14.03;46.73
75357;HTU21D;63946;51.986;5.930;2024-03-02T12:44:56;14.03;47.04
75357;HTU21D;63946;51.986;5.930;2024-03-02T12:47:25;14.05;47.28
75357;HTU21D;63946;51.986;5.930;2024-03-02T12:49:54;14.11;47.31
75357;HTU21D;63946;51.986;5.930;2024-03-02T12:52:23;14.19;47.44
75357;HTU21D;63946;51.986;5.930;2024-03-02T12:54:52;14.35;46.96
75357;HTU21D;63946;51.986;5.930;2024-03-02T12:57:28;14.52;46.67
75357;HTU21D;63946;51.986;5.930;2024-03-02T12:59:58;14.68;46.89
75357;HTU21D;63946;51.986;5.930;2024-03-02T13:02:31;14.78;46.31
75357;HTU21D;63946;51.986;5.930;2024-03-02T13:04:59;14.79;46.31
75357;HTU21D;63946;51.986;5.930;2024-03-02T13:07:29;14.88;46.57
75357;HTU21D;63946;51.986;5.930;2024-03-02T13:09:59;14.78;46.65
75357;HTU21D;63946;51.986;5.930;2024-03-02T13:12:30;14.68;47.12
75357;HTU21D;63946;51.986;5.930;2024-03-02T13:14:59;14.62;47.18
75357;HTU21D;63946;51.986;5.930;2024-03-02T13:17:28;14.52;47.58
75357;HTU21D;63946;51.986;5.930;2024-03-02T13:19:59;14.54;48.05
75357;HTU21D;63946;51.986;5.930;2024-03-02T13:22:29;14.68;48.16
75357;HTU21D;63946;51.986;5.930;2024-03-02T13:24:58;14.79;48.06
75357;HTU21D;63946;51.986;5.930;2024-03-02T13:27:30;14.88;48.43
75357;HTU21D;63946;51.986;5.930;2024-03-02T13:30:00;14.96;48.47
75357;HTU21D;63946;51.986;5.930;2024-03-02T13:32:31;14.83;48.54
75357;HTU21D;63946;51.986;5.930;2024-03-02T13:35:00;14.92;48.65
75357;HTU21D;63946;51.986;5.930;2024-03-02T13:37:29;15.17;48.24
75357;HTU21D;63946;51.986;5.930;2024-03-02T13:39:58;15.36;47.67
75357;HTU21D;63946;51.986;5.930;2024-03-02T13:42:30;15.47;47.43
75357;HTU21D;63946;51.986;5.930;2024-03-02T13:44:59;15.57;46.80
75357;HTU21D;63946;51.986;5.930;2024-03-02T13:47:30;15.61;46.70
75357;HTU21D;63946;51.986;5.930;2024-03-02T13:49:59;15.70;46.56
75357;HTU21D;63946;51.986;5.930;2024-03-02T13:52:28;15.66;46.02
75357;HTU21D;63946;51.986;5.930;2024-03-02T13:54:57;15.52;46.08
75357;HTU21D;63946;51.986;5.930;2024-03-02T13:57:26;15.34;46.78
75357;HTU21D;63946;51.986;5.930;2024-03-02T13:59:54;15.27;46.57
75357;HTU21D;63946;51.986;5.930;2024-03-02T14:02:23;15.07;46.70
75357;HTU21D;63946;51.986;5.930;2024-03-02T14:04:52;14.98;46.73
75357;HTU21D;63946;51.986;5.930;2024-03-02T14:07:21;14.81;46.45
75357;HTU21D;63946;51.986;5.930;2024-03-02T14:09:50;14.66;46.91
75357;HTU21D;63946;51.986;5.930;2024-03-02T14:12:19;14.62;47.34
75357;HTU21D;63946;51.986;5.930;2024-03-02T14:14:48;14.62;47.18
75357;HTU21D;63946;51.986;5.930;2024-03-02T14:17:21;14.73;47.02
75357;HTU21D;63946;51.986;5.930;2024-03-02T14:19:52;14.82;46.56
75357;HTU21D;63946;51.986;5.930;2024-03-02T14:22:25;14.85;46.40
75357;HTU21D;63946;51.986;5.930;2024-03-02T14:24:53;14.89;46.30
75357;HTU21D;63946;51.986;5.930;2024-03-02T14:27:25;14.94;45.59
75357;HTU21D;63946;51.986;5.930;2024-03-02T14:29:52;14.95;44.75
75357;HTU21D;63946;51.986;5.930;2024-03-02T14:32:20;14.94;44.93
75357;HTU21D;63946;51.986;5.930;2024-03-02T14:34:52;14.87;44.52
75357;HTU21D;63946;51.986;5.930;2024-03-02T14:37:21;14.85;45.12
75357;HTU21D;63946;51.986;5.930;2024-03-02T14:39:50;14.89;45.12
75357;HTU21D;63946;51.986;5.930;2024-03-02T14:42:19;14.91;45.45
75357;HTU21D;63946;51.986;5.930;2024-03-02T14:44:47;15.00;45.68
75357;HTU21D;63946;51.986;5.930;2024-03-02T14:47:16;15.06;45.61
75357;HTU21D;63946;51.986;5.930;2024-03-02T14:49:48;15.00;45.90
75357;HTU21D;63946;51.986;5.930;2024-03-02T14:52:19;14.98;46.39
75357;HTU21D;63946;51.986;5.930;2024-03-02T14:54:48;15.01;46.60
75357;HTU21D;63946;51.986;5.930;2024-03-02T14:57:17;14.95;46.54
75357;HTU21D;63946;51.986;5.930;2024-03-02T14:59:46;14.81;46.77
75357;HTU21D;63946;51.986;5.930;2024-03-02T15:02:15;14.68;47.41
75357;HTU21D;63946;51.986;5.930;2024-03-02T15:04:43;14.65;47.55
75357;HTU21D;63946;51.986;5.930;2024-03-02T15:07:16;14.59;47.82
75357;HTU21D;63946;51.986;5.930;2024-03-02T15:09:45;14.56;47.83
75357;HTU21D;63946;51.986;5.930;2024-03-02T15:12:17;14.52;47.41
75357;HTU21D;63946;51.986;5.930;2024-03-02T15:14:46;14.43;47.83
75357;HTU21D;63946;51.986;5.930;2024-03-02T15:17:15;14.41;48.04
75357;HTU21D;63946;51.986;5.930;2024-03-02T15:19:45;14.34;48.22
75357;HTU21D;63946;51.986;5.930;2024-03-02T15:22:14;14.32;48.32
75357;HTU21D;63946;51.986;5.930;2024-03-02T15:24:42;14.27;48.34
75357;HTU21D;63946;51.986;5.930;2024-03-02T15:27:11;14.25;48.73
75357;HTU21D;63946;51.986;5.930;2024-03-02T15:29:40;14.32;49.12
75357;HTU21D;63946;51.986;5.930;2024-03-02T15:32:09;14.32;49.57
75357;HTU21D;63946;51.986;5.930;2024-03-02T15:34:37;14.26;49.28
75357;HTU21D;63946;51.986;5.930;2024-03-02T15:37:06;14.24;49.34
75357;HTU21D;63946;51.986;5.930;2024-03-02T15:39:35;14.17;49.26
75357;HTU21D;63946;51.986;5.930;2024-03-02T15:42:04;14.11;49.45
75357;HTU21D;63946;51.986;5.930;2024-03-02T15:44:33;14.07;49.63
75357;HTU21D;63946;51.986;5.930;2024-03-02T15:47:02;14.00;49.57
75357;HTU21D;63946;51.986;5.930;2024-03-02T15:49:31;13.99;49.75
75357;HTU21D;63946;51.986;5.930;2024-03-02T15:52:00;13.98;50.28
75357;HTU21D;63946;51.986;5.930;2024-03-02T15:54:29;13.95;50.77
75357;HTU21D;63946;51.986;5.930;2024-03-02T15:56:58;13.90;50.86
75357;HTU21D;63946;51.986;5.930;2024-03-02T15:59:26;13.83;51.01
75357;HTU21D;63946;51.986;5.930;2024-03-02T16:01:55;13.79;51.27
75357;HTU21D;63946;51.986;5.930;2024-03-02T16:04:24;13.76;51.40
75357;HTU21D;63946;51.986;5.930;2024-03-02T16:06:53;13.71;51.30
75357;HTU21D;63946;51.986;5.930;2024-03-02T16:09:22;13.69;51.47
75357;HTU21D;63946;51.986;5.930;2024-03-02T16:11:51;13.67;51.63
75357;HTU21D;63946;51.986;5.930;2024-03-02T16:14:19;13.65;51.66
75357;HTU21D;63946;51.986;5.930;2024-03-02T16:16:48;13.64;51.75
75357;HTU21D;63946;51.986;5.930;2024-03-02T16:19:18;13.66;51.81
75357;HTU21D;63946;51.986;5.930;2024-03-02T16:21:47;13.67;51.85
75357;HTU21D;63946;51.986;5.930;2024-03-02T16:24:16;13.70;51.95
75357;HTU21D;63946;51.986;5.930;2024-03-02T16:26:45;13.73;52.03
75357;HTU21D;63946;51.986;5.930;2024-03-02T16:29:13;13.69;52.07
75357;HTU21D;63946;51.986;5.930;2024-03-02T16:31:42;13.66;52.18
75357;HTU21D;63946;51.986;5.930;2024-03-02T16:34:11;13.66;52.35
75357;HTU21D;63946;51.986;5.930;2024-03-02T16:36:40;13.64;52.69
75357;HTU21D;63946;51.986;5.930;2024-03-02T16:39:09;13.60;52.59
75357;HTU21D;63946;51.986;5.930;2024-03-02T16:41:37;13.53;52.59
75357;HTU21D;63946;51.986;5.930;2024-03-02T16:44:14;13.47;52.87
75357;HTU21D;63946;51.986;5.930;2024-03-02T16:46:43;13.41;53.18
75357;HTU21D;63946;51.986;5.930;2024-03-02T16:49:13;13.36;53.31
75357;HTU21D;63946;51.986;5.930;2024-03-02T16:51:45;13.32;53.45
75357;HTU21D;63946;51.986;5.930;2024-03-02T16:54:19;13.27;53.59
75357;HTU21D;63946;51.986;5.930;2024-03-02T16:56:50;13.25;53.74
75357;HTU21D;63946;51.986;5.930;2024-03-02T16:59:19;13.20;53.98
75357;HTU21D;63946;51.986;5.930;2024-03-02T17:01:50;13.17;53.93
75357;HTU21D;63946;51.986;5.930;2024-03-02T17:04:19;13.15;54.02
75357;HTU21D;63946;51.986;5.930;2024-03-02T17:06:50;13.15;54.15
75357;HTU21D;63946;51.986;5.930;2024-03-02T17:09:22;13.14;54.55
75357;HTU21D;63946;51.986;5.930;2024-03-02T17:11:54;13.10;54.64
75357;HTU21D;63946;51.986;5.930;2024-03-02T17:14:23;13.07;54.63
75357;HTU21D;63946;51.986;5.930;2024-03-02T17:16:52;13.03;54.59
75357;HTU21D;63946;51.986;5.930;2024-03-02T17:19:21;12.97;54.82
75357;HTU21D;63946;51.986;5.930;2024-03-02T17:21:51;12.92;55.04
75357;HTU21D;63946;51.986;5.930;2024-03-02T17:24:20;12.87;55.11
75357;HTU21D;63946;51.986;5.930;2024-03-02T17:26:49;12.85;55.16
75357;HTU21D;63946;51.986;5.930;2024-03-02T17:29:17;12.81;55.18
75357;HTU21D;63946;51.986;5.930;2024-03-02T17:31:46;12.77;55.29
75357;HTU21D;63946;51.986;5.930;2024-03-02T17:34:15;12.74;55.42
75357;HTU21D;63946;51.986;5.930;2024-03-02T17:36:50;12.72;56.16
75357;HTU21D;63946;51.986;5.930;2024-03-02T17:39:21;12.70;56.10
75357;HTU21D;63946;51.986;5.930;2024-03-02T17:41:50;12.67;56.16
75357;HTU21D;63946;51.986;5.930;2024-03-02T17:44:19;12.70;56.25
75357;HTU21D;63946;51.986;5.930;2024-03-02T17:46:48;12.66;56.09
75357;HTU21D;63946;51.986;5.930;2024-03-02T17:49:17;12.65;56.11
75357;HTU21D;63946;51.986;5.930;2024-03-02T17:51:46;12.65;56.04
75357;HTU21D;63946;51.986;5.930;2024-03-02T17:54:20;12.66;56.04
75357;HTU21D;63946;51.986;5.930;2024-03-02T17:56:49;12.69;56.07
75357;HTU21D;63946;51.986;5.930;2024-03-02T17:59:18;12.69;56.00
75357;HTU21D;63946;51.986;5.930;2024-03-02T18:01:54;12.70;55.92
75357;HTU21D;63946;51.986;5.930;2024-03-02T18:04:23;12.72;55.90
75357;HTU21D;63946;51.986;5.930;2024-03-02T18:06:52;12.71;55.89
75357;HTU21D;63946;51.986;5.930;2024-03-02T18:09:27;12.71;55.90
75357;HTU21D;63946;51.986;5.930;2024-03-02T18:11:56;12.70;55.96
75357;HTU21D;63946;51.986;5.930;2024-03-02T18:14:24;12.69;55.96
75357;HTU21D;63946;51.986;5.930;2024-03-02T18:16:53;12.69;56.11
75357;HTU21D;63946;51.986;5.930;2024-03-02T18:19:27;12.67;56.07
75357;HTU21D;63946;51.986;5.930;2024-03-02T18:21:57;12.67;56.07
75357;HTU21D;63946;51.986;5.930;2024-03-02T18:24:26;12.67;55.97
75357;HTU21D;63946;51.986;5.930;2024-03-02T18:26:55;12.70;55.82
75357;HTU21D;63946;51.986;5.930;2024-03-02T18:29:25;12.67;55.82
75357;HTU21D;63946;51.986;5.930;2024-03-02T18:31:54;12.66;55.69
75357;HTU21D;63946;51.986;5.930;2024-03-02T18:34:23;12.64;55.84
75357;HTU21D;63946;51.986;5.930;2024-03-02T18:36:52;12.62;55.81
75357;HTU21D;63946;51.986;5.930;2024-03-02T18:39:22;12.62;55.71
75357;HTU21D;63946;51.986;5.930;2024-03-02T18:41:50;12.59;55.78
75357;HTU21D;63946;51.986;5.930;2024-03-02T18:44:19;12.56;55.95
75357;HTU21D;63946;51.986;5.930;2024-03-02T18:46:48;12.55;55.80
75357;HTU21D;63946;51.986;5.930;2024-03-02T18:49:17;12.52;55.87
75357;HTU21D;63946;51.986;5.930;2024-03-02T18:51:45;12.50;56.15
75357;HTU21D;63946;51.986;5.930;2024-03-02T18:54:14;12.48;56.35
75357;HTU21D;63946;51.986;5.930;2024-03-02T18:56:43;12.47;56.27
75357;HTU21D;63946;51.986;5.930;2024-03-02T18:59:12;12.47;56.12
75357;HTU21D;63946;51.986;5.930;2024-03-02T19:01:41;12.46;56.23
75357;HTU21D;63946;51.986;5.930;2024-03-02T19:04:10;12.44;56.23
75357;HTU21D;63946;51.986;5.930;2024-03-02T19:06:38;12.45;56.07
75357;HTU21D;63946;51.986;5.930;2024-03-02T19:09:07;12.45;56.12
75357;HTU21D;63946;51.986;5.930;2024-03-02T19:11:36;12.46;56.10
75357;HTU21D;63946;51.986;5.930;2024-03-02T19:14:05;12.48;55.97
75357;HTU21D;63946;51.986;5.930;2024-03-02T19:16:35;12.50;55.97
75357;HTU21D;63946;51.986;5.930;2024-03-02T19:19:04;12.52;55.94
75357;HTU21D;63946;51.986;5.930;2024-03-02T19:21:33;12.52;56.07
75357;HTU21D;63946;51.986;5.930;2024-03-02T19:24:02;12.51;56.16
75357;HTU21D;63946;51.986;5.930;2024-03-02T19:26:30;12.51;55.85
75357;HTU21D;63946;51.986;5.930;2024-03-02T19:29:00;12.48;55.88
75357;HTU21D;63946;51.986;5.930;2024-03-02T19:31:29;12.46;55.89
75357;HTU21D;63946;51.986;5.930;2024-03-02T19:33:58;12.44;55.90
75357;HTU21D;63946;51.986;5.930;2024-03-02T19:36:27;12.43;55.90
75357;HTU21D;63946;51.986;5.930;2024-03-02T19:38:56;12.43;56.10
75357;HTU21D;63946;51.986;5.930;2024-03-02T19:41:25;12.43;56.07
75357;HTU21D;63946;51.986;5.930;2024-03-02T19:43:53;12.44;55.80
75357;HTU21D;63946;51.986;5.930;2024-03-02T19:46:22;12.47;55.71
75357;HTU21D;63946;51.986;5.930;2024-03-02T19:48:51;12.47;55.77
75357;HTU21D;63946;51.986;5.930;2024-03-02T19:51:20;12.46;55.72
75357;HTU21D;63946;51.986;5.930;2024-03-02T19:53:49;12.43;55.81
75357;HTU21D;63946;51.986;5.930;2024-03-02T19:56:18;12.42;55.81
75357;HTU21D;63946;51.986;5.930;2024-03-02T19:58:47;12.41;55.71
75357;HTU21D;63946;51.986;5.930;2024-03-02T20:01:18;12.41;55.80
75357;HTU21D;63946;51.986;5.930;2024-03-02T20:03:47;12.40;55.81
75357;HTU21D;63946;51.986;5.930;2024-03-02T20:06:18;12.41;55.74
75357;HTU21D;63946;51.986;5.930;2024-03-02T20:08:46;12.43;55.62
75357;HTU21D;63946;51.986;5.930;2024-03-02T20:11:15;12.43;55.46
75357;HTU21D;63946;51.986;5.930;2024-03-02T20:13:44;12.48;55.20
75357;HTU21D;63946;51.986;5.930;2024-03-02T20:16:13;12.49;55.18
75357;HTU21D;63946;51.986;5.930;2024-03-02T20:18:43;12.47;55.20
75357;HTU21D;63946;51.986;5.930;2024-03-02T20:21:12;12.44;55.56
75357;HTU21D;63946;51.986;5.930;2024-03-02T20:23:43;12.41;55.43
75357;HTU21D;63946;51.986;5.930;2024-03-02T20:26:12;12.38;55.63
75357;HTU21D;63946;51.986;5.930;2024-03-02T20:28:43;12.35;55.36
75357;HTU21D;63946;51.986;5.930;2024-03-02T20:31:12;12.36;55.17
75357;HTU21D;63946;51.986;5.930;2024-03-02T20:33:44;12.37;54.96
75357;HTU21D;63946;51.986;5.930;2024-03-02T20:36:13;12.34;54.94
75357;HTU21D;63946;51.986;5.930;2024-03-02T20:38:42;12.33;54.79
75357;HTU21D;63946;51.986;5.930;2024-03-02T20:41:15;12.31;54.87
75357;HTU21D;63946;51.986;5.930;2024-03-02T20:43:45;12.28;54.83
75357;HTU21D;63946;51.986;5.930;2024-03-02T20:46:14;12.28;54.76
75357;HTU21D;63946;51.986;5.930;2024-03-02T20:48:42;12.26;54.79
75357;HTU21D;63946;51.986;5.930;2024-03-02T20:51:15;12.26;54.84
75357;HTU21D;63946;51.986;5.930;2024-03-02T20:53:46;12.23;54.91
75357;HTU21D;63946;51.986;5.930;2024-03-02T20:56:15;12.19;55.33
75357;HTU21D;63946;51.986;5.930;2024-03-02T20:58:44;12.13;55.39
75357;HTU21D;63946;51.986;5.930;2024-03-02T21:01:13;12.08;55.48
75357;HTU21D;63946;51.986;5.930;2024-03-02T21:03:42;12.06;55.65
75357;HTU21D;63946;51.986;5.930;2024-03-02T21:06:11;12.03;55.57
75357;HTU21D;63946;51.986;5.930;2024-03-02T21:08:40;12.00;55.38
75357;HTU21D;63946;51.986;5.930;2024-03-02T21:11:09;11.99;55.44
75357;HTU21D;63946;51.986;5.930;2024-03-02T21:13:40;11.99;55.49
75357;HTU21D;63946;51.986;5.930;2024-03-02T21:16:09;12.00;55.46
75357;HTU21D;63946;51.986;5.930;2024-03-02T21:18:38;12.05;55.20
75357;HTU21D;63946;51.986;5.930;2024-03-02T21:21:09;12.08;55.18
75357;HTU21D;63946;51.986;5.930;2024-03-02T21:23:39;12.12;55.09
75357;HTU21D;63946;51.986;5.930;2024-03-02T21:26:08;12.15;55.20
75357;HTU21D;63946;51.986;5.930;2024-03-02T21:28:36;12.15;55.17
75357;HTU21D;63946;51.986;5.930;2024-03-02T21:31:05;12.15;54.95
75357;HTU21D;63946;51.986;5.930;2024-03-02T21:33:36;12.13;54.84
75357;HTU21D;63946;51.986;5.930;2024-03-02T21:36:06;12.12;55.03
75357;HTU21D;63946;51.986;5.930;2024-03-02T21:38:34;12.10;54.93
75357;HTU21D;63946;51.986;5.930;2024-03-02T21:41:10;12.13;54.83
75357;HTU21D;63946;51.986;5.930;2024-03-02T21:43:39;12.13;55.29
75357;HTU21D;63946;51.986;5.930;2024-03-02T21:46:11;12.12;55.36
75357;HTU21D;63946;51.986;5.930;2024-03-02T21:48:40;12.10;55.49
75357;HTU21D;63946;51.986;5.930;2024-03-02T21:51:06;12.08;55.65
75357;HTU21D;63946;51.986;5.930;2024-03-02T21:53:35;12.06;55.52
75357;HTU21D;63946;51.986;5.930;2024-03-02T21:56:04;12.03;55.52
75357;HTU21D;63946;51.986;5.930;2024-03-02T21:58:39;11.99;55.55
75357;HTU21D;63946;51.986;5.930;2024-03-02T22:01:13;11.93;55.66
75357;HTU21D;63946;51.986;5.930;2024-03-02T22:03:52;11.90;55.71
75357;HTU21D;63946;51.986;5.930;2024-03-02T22:06:20;11.88;55.86
